Weather at Stevensville Seaplane Base

Public forecast

Using degrees Celsius for public forecast. Weather courtesy of forecast.io.

Closest aviation weather report (METAR) to Stevensville Seaplane Base

Closest report is Niagara Falls International Airport, 12.4 nm (23.0 km) NNE.

2024/07/18 22:53 (retrieved 57 minutes ago)

KIAG 182253Z 36008KT 10SM CLR 23/11 A3006 RMK AO2 SLP178 T02280111

Closest aviation forecast (TAF) to Stevensville Seaplane Base

Closest forecast is Niagara Falls International Airport, 12.4 nm (23.0 km) NNE.

2024/07/18 18:36 (retrieved 5 hours ago)

TAF KIAG 181733Z 1818/1918 33010KT P6SM SCT035 FM182300 33007KT P6SM FEW035 FM190100 33005KT P6SM FEW035 FM190700 VRB03KT P6SM FEW250 FM191500 26004KT P6SM FEW035